Impacts METAR Board INFO
IDs:

KMIA - Miami Intl, FL, US

Updated at: 1749 UTC 25 Feb 2018
Potential Impact None Slight Moderate High
Time25/05Z 25/06Z 25/07Z 25/08Z 25/09Z 25/10Z 25/11Z 25/12Z 25/13Z 25/14Z 25/15Z 25/16Z 25/17Z
VIS8 10 10 10 10 10 10 10 10 10 10 10 10
CIG32 70 80 -- 85 90 -- -- -- -- -- 27 29
CoverOVCBKNBKNSCTBKNBKNFEWFEWFEWSCTSCTBKNBKN
FltCatVFRVFRVFRVFRVFRVFRVFRVFRVFRVFRVFRMVFRMVFR
WX-RA------------------------
WDir13090110110100100100110120110130120140
WSpd5 5 8 5 5 7 6 8 4 10 9 9 10
WGst-- -- -- -- -- -- -- -- -- -- -- -- --
Raw hourly METARs
KMIA 250453Z 13005KT 8SM -RA SCT020 BKN032 OVC055 22/20 A3017 RMK AO2 RAB36 SLP216 P0000 T02170200 402780217
KMIA 250553Z 09005KT 10SM FEW020 FEW035 BKN070 23/19 A3016 RMK AO2 RAE02 SLP212 P0000 60000 T02280194 10244 20217 58002
KMIA 250653Z 11008KT 10SM FEW023 FEW038 BKN080 24/21 A3015 RMK AO2 SLP209 T02390206
KMIA 250753Z 11005KT 10SM FEW023 FEW038 SCT080 23/21 A3014 RMK AO2 SLP207 T02280206
KMIA 250853Z 10005KT 10SM SCT025 BKN085 23/20 A3014 RMK AO2 SLP207 T02280200 56005
KMIA 250953Z 10007KT 10SM FEW025 FEW034 BKN090 23/21 A3015 RMK AO2 SLP210 T02330206
KMIA 251053Z 10006KT 10SM FEW023 FEW090 22/20 A3016 RMK AO2 SLP213 T02220200
KMIA 251153Z 11008KT 10SM FEW025 FEW090 22/20 A3017 RMK AO2 SLP216 T02220200 10239 20222 53008
KMIA 251253Z 12004KT 10SM FEW025 23/21 A3018 RMK AO2 SLP219 T02330206
KMIA 251353Z 11010KT 10SM SCT025 26/21 A3019 RMK AO2 SLP223 T02560206
KMIA 251453Z 13009KT 10SM SCT026 26/20 A3020 RMK AO2 SLP226 T02610200 51009
KMIA 251553Z 12009KT 10SM BKN027 27/20 A3020 RMK AO2 SLP226 T02670200
KMIA 251653Z 14010KT 120V180 10SM BKN029 28/21 A3018 RMK AO2 SLP221 T02780206